Time;durP1;ratioP1;P1;durP2;ratioP2;P2;SDS_P1;SDS_P2;PMS_P1;PMS_P2;Temp;Humidity;BMP_temperature;BMP_pressure;BME280_temperature;BME280_humidity;BME280_pressure;Samples;Min_cycle;Max_cycle;Signal;HPM_P1;HPM_P2
2021/05/29 00:00:34;;;;;;;6.85;6.22;;;13.10;73.30;;;;;;5098941;28;20430;-86
2021/05/29 00:03:00;;;;;;;9.60;6.20;;;13.10;73.40;;;;;;5078484;28;20028;-86
2021/05/29 00:05:26;;;;;;;7.28;6.05;;;13.10;73.50;;;;;;5061727;28;20032;-86
2021/05/29 00:07:51;;;;;;;8.38;5.38;;;13.00;73.70;;;;;;5078092;28;20028;-86
2021/05/29 00:10:17;;;;;;;6.90;5.25;;;13.00;73.90;;;;;;5083796;28;20024;-86
2021/05/29 00:12:42;;;;;;;8.18;5.85;;;13.00;74.00;;;;;;5061533;28;20040;-86
2021/05/29 00:15:09;;;;;;;6.95;5.20;;;12.90;74.10;;;;;;5056217;28;20134;-86
2021/05/29 00:17:35;;;;;;;7.75;5.25;;;12.90;74.20;;;;;;5114116;28;20028;-85
2021/05/29 00:20:00;;;;;;;7.00;5.07;;;12.90;74.40;;;;;;5068815;28;20031;-86
2021/05/29 00:22:26;;;;;;;9.15;5.55;;;12.80;74.40;;;;;;5078954;28;20495;-86
2021/05/29 00:24:52;;;;;;;5.97;4.72;;;12.80;74.60;;;;;;5098457;28;20468;-86
2021/05/29 00:27:17;;;;;;;8.57;5.25;;;12.80;74.70;;;;;;5098159;28;20039;-86
2021/05/29 00:29:43;;;;;;;6.07;5.13;;;12.80;74.90;;;;;;5105320;28;20036;-85
2021/05/29 00:32:09;;;;;;;8.70;5.90;;;12.80;75.10;;;;;;5097062;28;20050;-86
2021/05/29 00:34:34;;;;;;;8.10;4.50;;;12.70;75.10;;;;;;5059347;28;20473;-86
2021/05/29 00:37:00;;;;;;;7.60;5.38;;;12.70;75.30;;;;;;5094918;28;20031;-86
2021/05/29 00:39:25;;;;;;;7.70;5.10;;;12.70;75.30;;;;;;5114682;28;20023;-85
2021/05/29 00:41:51;;;;;;;9.32;5.40;;;12.60;75.40;;;;;;5092484;28;20655;-86
2021/05/29 00:44:17;;;;;;;6.50;5.43;;;12.60;75.50;;;;;;5095373;28;20031;-86
2021/05/29 00:46:42;;;;;;;9.05;5.30;;;12.60;75.70;;;;;;5093696;28;20050;-86
2021/05/29 00:49:08;;;;;;;7.05;5.43;;;12.60;75.80;;;;;;5063336;28;20055;-86
2021/05/29 00:51:36;;;;;;;10.18;5.20;;;12.60;75.80;;;;;;5096344;28;20038;-86
2021/05/29 00:54:03;;;;;;;7.50;5.00;;;12.60;76.00;;;;;;5096118;28;20058;-86
2021/05/29 00:56:28;;;;;;;6.15;5.38;;;12.60;76.10;;;;;;5066863;28;20370;-86
2021/05/29 00:58:54;;;;;;;5.85;4.88;;;12.50;76.20;;;;;;5060833;28;20124;-86
2021/05/29 01:01:20;;;;;;;6.68;4.90;;;12.50;77.00;;;;;;5073043;28;20058;-86
2021/05/29 01:03:45;;;;;;;5.45;4.95;;;12.50;76.60;;;;;;5059760;28;20029;-85
2021/05/29 01:06:11;;;;;;;4.97;4.20;;;12.40;76.70;;;;;;5085208;28;20026;-86
2021/05/29 01:08:37;;;;;;;8.20;5.07;;;12.40;76.80;;;;;;5077412;28;20032;-85
2021/05/29 01:11:02;;;;;;;8.15;4.95;;;12.40;76.80;;;;;;5097649;28;20039;-86
2021/05/29 01:13:32;;;;;;;6.30;4.82;;;12.40;76.90;;;;;;5097317;28;20031;-86
2021/05/29 01:16:05;;;;;;;7.65;5.32;;;12.30;77.00;;;;;;5096365;28;20020;-85
2021/05/29 01:18:30;;;;;;;6.93;5.10;;;12.30;77.20;;;;;;5061662;28;20039;-86
2021/05/29 01:20:57;;;;;;;6.28;4.95;;;12.30;77.40;;;;;;5103632;28;20012;-86
2021/05/29 01:23:23;;;;;;;7.93;5.20;;;12.20;77.40;;;;;;5115569;28;20024;-86
2021/05/29 01:25:49;;;;;;;5.97;5.13;;;12.20;78.10;;;;;;5097261;28;20406;-85
2021/05/29 01:28:26;;;;;;;6.03;5.10;;;12.10;77.60;;;;;;5110096;28;20024;-85
2021/05/29 01:31:01;;;;;;;5.45;4.80;;;12.10;77.90;;;;;;5095074;28;20056;-86
2021/05/29 01:33:30;;;;;;;8.38;5.03;;;12.10;78.10;;;;;;5078588;28;20043;-86
2021/05/29 01:36:01;;;;;;;;;;;12.10;78.10;;;;;;5091321;28;20020;-85
2021/05/29 01:38:29;;;;;;;7.13;4.90;;;12.10;77.90;;;;;;5115067;28;19907;-85
2021/05/29 01:41:05;;;;;;;6.88;5.43;;;12.00;78.30;;;;;;5076521;28;20024;-85
2021/05/29 01:43:33;;;;;;;10.25;5.43;;;12.00;78.50;;;;;;5076921;28;20038;-85
2021/05/29 01:45:59;;;;;;;6.88;5.35;;;11.90;78.40;;;;;;5097385;28;20110;-86
2021/05/29 01:48:32;;;;;;;7.78;5.53;;;11.90;78.50;;;;;;5096587;28;20048;-86
2021/05/29 01:50:58;;;;;;;8.18;6.22;;;11.90;78.60;;;;;;5080543;28;20063;-86
2021/05/29 01:53:24;;;;;;;9.35;6.57;;;11.90;78.80;;;;;;5096225;28;20047;-86
2021/05/29 01:55:49;;;;;;;6.93;5.32;;;11.80;78.90;;;;;;5114456;28;20039;-85
2021/05/29 01:58:16;;;;;;;7.78;5.45;;;11.80;79.70;;;;;;5075756;28;20034;-85
2021/05/29 02:00:42;;;;;;;7.75;5.63;;;11.80;79.10;;;;;;5092230;28;20094;-85
2021/05/29 02:03:08;;;;;;;9.02;5.63;;;11.80;79.20;;;;;;5069050;28;20020;-85
2021/05/29 02:05:35;;;;;;;8.25;5.88;;;11.80;79.20;;;;;;5114237;28;20034;-85
2021/05/29 02:08:04;;;;;;;7.68;5.53;;;11.80;79.20;;;;;;5114490;28;20548;-85
2021/05/29 02:10:30;;;;;;;;;;;11.80;79.30;;;;;;5086973;28;20464;-85
2021/05/29 02:12:59;;;;;;;10.00;5.78;;;11.70;79.00;;;;;;5065919;28;20392;-86
2021/05/29 02:15:31;;;;;;;7.38;5.68;;;11.60;79.40;;;;;;5096423;28;20476;-85
2021/05/29 02:17:59;;;;;;;7.53;5.80;;;11.60;79.60;;;;;;5112976;28;20027;-85
2021/05/29 02:20:38;;;;;;;8.75;5.82;;;11.60;79.70;;;;;;5096015;28;20016;-85
2021/05/29 02:23:03;;;;;;;6.32;5.38;;;11.60;79.90;;;;;;5111758;28;20038;-85
2021/05/29 02:25:29;;;;;;;8.80;5.90;;;11.60;79.80;;;;;;5094826;28;20043;-85
2021/05/29 02:27:55;;;;;;;6.55;5.32;;;11.60;79.90;;;;;;5078302;28;20032;-85
2021/05/29 02:30:22;;;;;;;6.10;5.47;;;11.60;80.00;;;;;;5109815;28;20074;-86
2021/05/29 02:32:47;;;;;;;7.38;5.72;;;11.60;80.10;;;;;;5063900;28;20028;-86
2021/05/29 02:35:13;;;;;;;7.35;5.72;;;11.60;80.80;;;;;;5095685;28;20122;-86
2021/05/29 02:37:39;;;;;;;9.10;6.40;;;11.60;80.30;;;;;;5113687;28;20073;-86
2021/05/29 02:40:05;;;;;;;9.02;6.13;;;11.60;80.30;;;;;;5060786;28;20525;-86
2021/05/29 02:42:31;;;;;;;7.00;5.57;;;11.50;80.30;;;;;;5086367;28;20067;-86
2021/05/29 02:44:57;;;;;;;7.70;5.75;;;11.50;80.40;;;;;;5077769;28;20063;-86
2021/05/29 02:47:23;;;;;;;7.10;5.55;;;11.50;80.40;;;;;;5095327;28;20461;-86
2021/05/29 02:49:48;;;;;;;7.57;5.90;;;11.50;80.50;;;;;;5095579;28;20081;-85
2021/05/29 02:52:14;;;;;;;7.22;5.75;;;11.40;80.70;;;;;;5078713;28;20031;-86
2021/05/29 02:54:43;;;;;;;9.98;5.97;;;11.40;80.70;;;;;;5090034;28;20031;-86
2021/05/29 02:57:12;;;;;;;7.32;5.43;;;11.40;80.80;;;;;;5091368;28;20418;-86
2021/05/29 02:59:39;;;;;;;7.97;5.78;;;11.40;81.00;;;;;;5071820;28;20198;-86
2021/05/29 03:02:08;;;;;;;7.32;5.47;;;11.40;81.10;;;;;;5095381;28;20031;-86
2021/05/29 03:04:34;;;;;;;8.95;6.05;;;11.30;81.10;;;;;;5102155;28;20036;-85
2021/05/29 03:07:00;;;;;;;9.18;6.55;;;11.40;81.20;;;;;;5107293;28;20032;-86
2021/05/29 03:09:26;;;;;;;7.85;6.10;;;11.40;81.40;;;;;;5075227;28;20430;-86
2021/05/29 03:11:52;;;;;;;9.05;6.95;;;11.30;81.60;;;;;;5074945;28;20040;-86
2021/05/29 03:14:17;;;;;;;11.63;7.43;;;11.30;81.90;;;;;;5077312;28;20174;-86
2021/05/29 03:16:43;;;;;;;7.82;6.50;;;11.20;82.10;;;;;;5113358;28;20028;-86
2021/05/29 03:19:09;;;;;;;8.73;6.05;;;11.20;82.50;;;;;;5113232;28;20055;-86
2021/05/29 03:21:34;;;;;;;7.78;6.90;;;11.20;82.60;;;;;;5094995;28;20102;-86
2021/05/29 03:24:00;;;;;;;8.15;6.57;;;11.20;82.80;;;;;;5078407;28;20028;-86
2021/05/29 03:26:26;;;;;;;9.52;7.00;;;11.20;83.00;;;;;;5078036;28;20028;-86
2021/05/29 03:28:52;;;;;;;8.93;7.45;;;11.20;83.10;;;;;;5100399;28;20020;-86
2021/05/29 03:31:18;;;;;;;9.40;7.55;;;11.10;83.10;;;;;;5099111;28;20027;-85
2021/05/29 03:33:44;;;;;;;10.52;6.80;;;11.10;83.20;;;;;;5117395;28;20123;-86
2021/05/29 03:36:10;;;;;;;8.82;6.82;;;11.20;83.30;;;;;;5081969;28;20118;-86
2021/05/29 03:38:36;;;;;;;9.75;6.65;;;11.10;83.30;;;;;;5117379;28;20097;-86
2021/05/29 03:41:02;;;;;;;11.18;6.80;;;11.20;83.40;;;;;;5099130;28;20019;-86
2021/05/29 03:43:27;;;;;;;9.38;7.10;;;11.20;83.40;;;;;;5114695;28;20043;-86
2021/05/29 03:45:53;;;;;;;10.70;6.68;;;11.10;83.50;;;;;;5061862;28;20257;-85
2021/05/29 03:48:19;;;;;;;9.38;6.55;;;11.20;83.60;;;;;;5089120;28;20031;-86
2021/05/29 03:50:44;;;;;;;7.38;6.25;;;11.20;83.50;;;;;;5097367;28;20027;-86
2021/05/29 03:53:10;;;;;;;8.48;6.25;;;11.10;83.50;;;;;;5074145;28;20032;-86
2021/05/29 03:55:36;;;;;;;10.90;6.95;;;11.20;83.50;;;;;;5097745;28;20468;-86
2021/05/29 03:58:03;;;;;;;8.55;7.25;;;11.20;83.50;;;;;;5094959;28;20032;-86
2021/05/29 04:00:29;;;;;;;7.28;6.35;;;11.20;83.50;;;;;;5081743;28;20034;-86
2021/05/29 04:02:55;;;;;;;11.98;7.70;;;11.20;83.40;;;;;;5094863;28;20426;-86
2021/05/29 04:05:22;;;;;;;38.30;13.98;;;11.20;83.40;;;;;;5050616;28;20028;-86
2021/05/29 04:07:49;;;;;;;14.55;7.80;;;11.20;83.50;;;;;;5072324;28;20035;-86
2021/05/29 04:10:18;;;;;;;8.75;7.22;;;11.20;83.60;;;;;;5104954;28;20027;-86
2021/05/29 04:12:44;;;;;;;8.80;7.13;;;11.20;83.70;;;;;;5114438;28;20534;-85
2021/05/29 04:15:11;;;;;;;8.98;7.28;;;11.20;83.70;;;;;;5095163;28;20381;-86
2021/05/29 04:17:37;;;;;;;8.18;6.97;;;11.20;83.90;;;;;;5098270;28;20367;-86
2021/05/29 04:20:04;;;;;;;8.73;6.90;;;11.20;83.90;;;;;;5098078;28;20038;-86
2021/05/29 04:22:30;;;;;;;10.63;7.43;;;11.30;84.00;;;;;;5113397;28;20112;-86
2021/05/29 04:24:55;;;;;;;10.45;6.90;;;11.30;84.00;;;;;;5098182;28;20487;-85
2021/05/29 04:27:21;;;;;;;11.48;7.50;;;11.30;84.00;;;;;;5056252;28;20035;-86
2021/05/29 04:29:47;;;;;;;9.60;7.68;;;11.40;83.90;;;;;;5114511;28;20377;-86
2021/05/29 04:32:12;;;;;;;12.88;8.13;;;11.40;83.90;;;;;;5079602;28;20059;-86
2021/05/29 04:34:38;;;;;;;12.77;7.32;;;11.50;83.80;;;;;;5088312;28;20111;-86
2021/05/29 04:37:04;;;;;;;9.32;7.22;;;11.50;83.80;;;;;;5116176;28;20027;-85
2021/05/29 04:39:31;;;;;;;11.70;6.80;;;11.60;83.80;;;;;;5058129;28;20023;-86
2021/05/29 04:41:56;;;;;;;14.27;8.38;;;11.60;83.60;;;;;;5061139;28;20032;-85
2021/05/29 04:44:22;;;;;;;8.60;7.53;;;11.60;83.70;;;;;;5109267;28;20085;-86
2021/05/29 04:46:52;;;;;;;10.75;7.65;;;11.60;83.80;;;;;;5078469;28;20094;-85
2021/05/29 04:49:22;;;;;;;10.60;8.05;;;11.60;83.80;;;;;;5077545;28;20036;-86
2021/05/29 04:51:49;;;;;;;9.68;8.10;;;11.70;84.00;;;;;;5096860;28;20092;-86
2021/05/29 04:54:15;;;;;;;9.73;7.75;;;11.60;84.00;;;;;;5097600;28;20027;-86
2021/05/29 04:56:41;;;;;;;11.38;7.70;;;11.70;84.10;;;;;;5080792;28;20027;-86
2021/05/29 04:59:07;;;;;;;13.77;8.57;;;11.60;84.10;;;;;;5097571;28;20035;-86
2021/05/29 05:01:32;;;;;;;11.52;8.60;;;11.70;84.40;;;;;;5072941;28;20366;-86
2021/05/29 05:04:00;;;;;;;10.73;7.70;;;11.70;84.40;;;;;;5069441;28;20149;-86
2021/05/29 05:06:26;;;;;;;10.70;7.45;;;11.70;84.30;;;;;;5089631;28;20383;-86
2021/05/29 05:08:52;;;;;;;11.75;7.85;;;11.80;84.30;;;;;;5094990;28;20447;-86
2021/05/29 05:11:18;;;;;;;11.85;7.82;;;11.80;84.30;;;;;;5067823;28;20131;-86
2021/05/29 05:13:44;;;;;;;11.85;8.43;;;11.80;84.30;;;;;;5095034;28;20024;-85
2021/05/29 05:16:10;;;;;;;11.98;7.85;;;11.90;84.50;;;;;;5077460;28;20020;-86
2021/05/29 05:18:35;;;;;;;10.00;7.53;;;11.90;84.50;;;;;;5114569;28;20024;-86
2021/05/29 05:21:01;;;;;;;9.50;7.85;;;11.90;84.60;;;;;;5079704;28;20361;-86
2021/05/29 05:23:27;;;;;;;13.27;7.65;;;11.90;84.50;;;;;;5096737;28;20028;-85
2021/05/29 05:25:53;;;;;;;9.43;7.53;;;12.00;84.40;;;;;;5096927;28;20042;-85
2021/05/29 05:28:26;;;;;;;10.55;6.50;;;12.10;84.50;;;;;;5115009;28;20094;-85
2021/05/29 05:31:02;;;;;;;10.25;7.55;;;12.10;84.40;;;;;;5060729;28;20024;-85
2021/05/29 05:33:29;;;;;;;11.23;7.45;;;12.20;84.10;;;;;;5107694;28;20015;-85
2021/05/29 05:35:55;;;;;;;10.50;8.00;;;12.30;83.90;;;;;;5093780;28;20040;-85
2021/05/29 05:38:21;;;;;;;11.65;7.47;;;12.40;83.80;;;;;;5075753;28;20369;-85
2021/05/29 05:40:47;;;;;;;8.90;7.05;;;12.40;83.50;;;;;;5090276;28;20466;-85
2021/05/29 05:43:13;;;;;;;12.40;7.82;;;12.40;83.40;;;;;;5096244;28;20062;-85
2021/05/29 05:45:39;;;;;;;13.80;7.95;;;12.50;83.50;;;;;;5096118;28;20036;-85
2021/05/29 05:48:05;;;;;;;10.98;7.50;;;12.50;83.20;;;;;;5094366;28;20044;-85
2021/05/29 05:50:31;;;;;;;10.80;6.93;;;12.60;83.10;;;;;;5092905;28;20399;-85
2021/05/29 05:52:57;;;;;;;7.80;6.65;;;12.70;82.90;;;;;;5112957;28;20098;-85
2021/05/29 05:55:24;;;;;;;9.57;6.95;;;12.80;82.90;;;;;;5106292;28;20107;-85
2021/05/29 05:57:50;;;;;;;10.13;6.65;;;12.90;83.20;;;;;;5110409;28;20035;-85
2021/05/29 06:00:19;;;;;;;10.45;6.70;;;12.90;82.10;;;;;;5111174;28;20031;-85
2021/05/29 06:02:46;;;;;;;13.80;7.13;;;13.00;81.70;;;;;;5113306;28;20106;-85
2021/05/29 06:05:16;;;;;;;9.40;6.00;;;13.10;81.40;;;;;;5096469;28;20170;-85
2021/05/29 06:07:42;;;;;;;8.25;5.80;;;13.20;81.20;;;;;;5101832;28;20399;-85
2021/05/29 06:10:09;;;;;;;7.57;5.90;;;13.30;80.80;;;;;;5114444;28;20024;-85
2021/05/29 06:12:38;;;;;;;12.38;6.60;;;13.40;80.70;;;;;;5095967;28;20125;-85
2021/05/29 06:20:23;;;;;;;8.02;5.95;;;13.70;79.20;;;;;;5096871;28;20052;-80
2021/05/29 06:22:49;;;;;;;11.68;6.35;;;13.70;79.00;;;;;;5114159;28;20058;-80
2021/05/29 06:25:15;;;;;;;9.60;6.28;;;13.80;78.50;;;;;;5095964;28;20088;-80
2021/05/29 06:27:43;;;;;;;12.45;5.97;;;13.90;78.30;;;;;;5095887;28;20027;-79
2021/05/29 06:30:10;;;;;;;9.27;5.97;;;14.00;78.40;;;;;;5094934;28;20490;-79
2021/05/29 06:32:36;;;;;;;9.23;5.82;;;14.00;77.80;;;;;;5077595;28;20043;-79
2021/05/29 06:35:03;;;;;;;9.88;6.03;;;14.20;77.20;;;;;;5087057;28;20028;-79
2021/05/29 06:37:29;;;;;;;11.00;5.43;;;14.40;76.60;;;;;;5113296;28;20038;-79
2021/05/29 06:39:55;;;;;;;9.15;5.85;;;14.50;76.00;;;;;;5095289;28;20388;-79
2021/05/29 06:42:20;;;;;;;9.98;5.38;;;14.60;75.70;;;;;;5055141;28;20032;-79
2021/05/29 06:44:46;;;;;;;6.32;5.03;;;14.80;75.00;;;;;;5106135;28;20027;-79
2021/05/29 06:47:12;;;;;;;8.30;5.28;;;14.90;74.80;;;;;;5106178;28;20052;-79
2021/05/29 06:49:39;;;;;;;8.07;5.07;;;15.10;74.10;;;;;;5070073;28;20034;-79
2021/05/29 06:52:13;;;;;;;8.25;5.00;;;15.20;73.30;;;;;;5078678;28;20028;-79
2021/05/29 06:59:49;;;;;;;9.60;5.22;;;15.50;71.30;;;;;;5086643;28;20140;-80
2021/05/29 07:02:15;;;;;;;11.00;5.38;;;15.60;71.20;;;;;;5090743;28;20119;-79
2021/05/29 07:04:40;;;;;;;6.45;4.47;;;15.60;71.30;;;;;;5086429;28;20024;-80
2021/05/29 07:07:06;;;;;;;7.20;4.57;;;15.70;71.20;;;;;;5096427;28;20046;-80
2021/05/29 07:09:32;;;;;;;6.05;4.25;;;15.80;70.60;;;;;;5081061;28;20022;-80
2021/05/29 07:11:58;;;;;;;6.10;4.95;;;15.90;69.70;;;;;;5086982;28;20459;-79
2021/05/29 07:14:24;;;;;;;7.28;4.88;;;16.00;69.60;;;;;;5095002;28;20494;-80
2021/05/29 07:16:54;;;;;;;8.63;5.20;;;16.10;69.40;;;;;;5108518;28;20038;-79
2021/05/29 07:19:20;;;;;;;7.53;4.60;;;16.20;67.90;;;;;;5076171;28;20059;-79
2021/05/29 07:21:48;;;;;;;10.15;4.40;;;16.20;68.20;;;;;;5094822;28;20027;-79
2021/05/29 07:24:14;;;;;;;10.15;4.38;;;16.30;68.30;;;;;;5113421;28;20057;-80
2021/05/29 07:26:40;;;;;;;7.13;4.40;;;16.50;67.40;;;;;;5113374;28;20032;-80
2021/05/29 07:29:06;;;;;;;5.82;3.80;;;16.60;66.20;;;;;;5107510;28;20024;-80
2021/05/29 07:31:32;;;;;;;7.18;4.07;;;16.70;66.40;;;;;;5079105;28;20443;-80
2021/05/29 07:33:58;;;;;;;8.32;4.15;;;16.80;65.60;;;;;;5084764;28;20040;-80
2021/05/29 07:36:23;;;;;;;8.45;4.20;;;16.80;65.80;;;;;;5054161;28;20039;-79
2021/05/29 07:38:50;;;;;;;6.75;3.85;;;17.00;65.40;;;;;;5083701;28;20028;-80
2021/05/29 07:41:16;;;;;;;6.32;3.88;;;17.00;65.40;;;;;;5112407;28;20390;-80
2021/05/29 07:43:42;;;;;;;8.25;3.90;;;17.10;65.10;;;;;;5100955;28;20023;-80
2021/05/29 07:46:08;;;;;;;8.32;4.28;;;17.20;63.80;;;;;;5112779;28;20080;-80
2021/05/29 07:48:34;;;;;;;5.78;3.50;;;17.20;63.40;;;;;;5094203;28;20055;-80
2021/05/29 07:51:01;;;;;;;6.00;3.60;;;17.30;63.70;;;;;;5108042;28;20053;-79
2021/05/29 07:53:39;;;;;;;22.08;4.60;;;17.40;63.90;;;;;;5082152;28;20027;-80
2021/05/29 07:56:10;;;;;;;4.85;3.70;;;17.60;63.70;;;;;;5112363;28;20028;-80
2021/05/29 07:58:36;;;;;;;4.82;3.20;;;17.70;63.00;;;;;;5094593;28;20035;-80
2021/05/29 08:01:02;;;;;;;6.85;3.65;;;17.90;62.70;;;;;;5112492;28;20103;-80
2021/05/29 08:03:31;;;;;;;10.68;3.60;;;18.10;62.00;;;;;;5105805;28;20019;-80
2021/05/29 08:05:57;;;;;;;;;;;18.20;61.60;;;;;;5058831;28;20047;-80
2021/05/29 08:08:24;;;;;;;5.10;3.70;;;18.30;61.70;;;;;;5102538;28;19908;-80
2021/05/29 08:10:52;;;;;;;5.65;3.53;;;18.50;60.00;;;;;;5095064;28;20576;-79
2021/05/29 08:13:18;;;;;;;6.30;3.58;;;18.50;59.80;;;;;;5095883;28;20039;-80
2021/05/29 08:15:45;;;;;;;6.43;3.63;;;18.40;59.00;;;;;;5115172;28;20560;-80
2021/05/29 08:18:14;;;;;;;8.77;3.95;;;18.50;59.50;;;;;;5115319;28;20353;-80
2021/05/29 08:20:40;;;;;;;5.70;3.53;;;18.50;59.10;;;;;;5070587;28;20028;-80
2021/05/29 08:23:06;;;;;;;5.63;3.47;;;18.60;59.00;;;;;;5097439;28;20383;-80
2021/05/29 08:25:33;;;;;;;8.15;3.53;;;18.70;59.20;;;;;;5078414;28;20484;-80
2021/05/29 08:27:58;;;;;;;6.25;3.53;;;18.90;59.50;;;;;;5079131;28;20108;-79
2021/05/29 08:30:25;;;;;;;5.78;3.67;;;19.10;58.80;;;;;;5080744;28;20070;-77
2021/05/29 08:32:51;;;;;;;4.07;3.15;;;19.20;57.80;;;;;;5079849;28;20023;-78
2021/05/29 08:35:16;;;;;;;7.05;3.20;;;19.20;57.40;;;;;;5094658;28;20087;-77
2021/05/29 08:37:44;;;;;;;8.38;3.85;;;19.20;58.30;;;;;;5105814;28;20472;-75
2021/05/29 08:40:12;;;;;;;7.28;3.45;;;19.20;57.30;;;;;;5080389;28;20028;-77
2021/05/29 08:42:38;;;;;;;5.70;3.57;;;19.10;57.00;;;;;;5107796;28;20032;-86
2021/05/29 08:45:05;;;;;;;13.75;3.83;;;19.20;56.70;;;;;;5092718;28;20054;-84
2021/05/29 08:47:31;;;;;;;4.22;3.20;;;19.30;56.70;;;;;;5080936;28;20138;-83
2021/05/29 08:49:56;;;;;;;7.63;3.67;;;19.50;56.40;;;;;;5097919;28;20138;-84
2021/05/29 08:52:22;;;;;;;5.32;3.25;;;19.60;56.20;;;;;;5077889;28;20553;-81
2021/05/29 08:54:48;;;;;;;7.20;3.00;;;19.70;55.50;;;;;;5080314;28;20023;-81
2021/05/29 08:57:16;;;;;;;5.32;2.70;;;19.80;54.60;;;;;;5054657;28;20510;-83
2021/05/29 08:59:42;;;;;;;6.27;3.20;;;19.90;55.00;;;;;;5115924;28;20015;-83
2021/05/29 09:02:08;;;;;;;6.88;3.20;;;19.90;53.80;;;;;;5097787;28;20314;-83
2021/05/29 09:04:33;;;;;;;5.97;2.85;;;20.10;54.40;;;;;;5097544;28;20042;-82
2021/05/29 09:06:59;;;;;;;4.78;3.33;;;20.20;53.70;;;;;;5115532;28;20098;-83
2021/05/29 09:09:25;;;;;;;4.93;2.95;;;20.10;53.00;;;;;;5080448;28;20027;-83
2021/05/29 09:11:58;;;;;;;4.93;2.78;;;20.20;53.50;;;;;;5094572;28;20484;-84
2021/05/29 09:14:24;;;;;;;3.55;2.00;;;20.40;53.00;;;;;;5107470;28;20031;-84
2021/05/29 09:17:23;;;;;;;2.58;1.98;;;20.50;51.50;;;;;;5115478;28;20019;-84
2021/05/29 09:20:11;;;;;;;1.70;1.33;;;20.50;49.30;;;;;;5081709;28;20035;-85
2021/05/29 09:23:04;;;;;;;4.20;1.88;;;20.50;49.10;;;;;;5093827;28;20023;-84
2021/05/29 09:25:34;;;;;;;3.33;2.17;;;20.50;50.10;;;;;;5080145;28;20126;-85
2021/05/29 09:28:02;;;;;;;2.38;1.77;;;20.60;48.70;;;;;;5095060;28;20024;-87
2021/05/29 09:30:44;;;;;;;2.88;1.98;;;20.70;48.90;;;;;;5085544;28;20015;-84
2021/05/29 09:33:18;;;;;;;4.18;3.47;;;20.80;48.40;;;;;;5115116;28;20106;-87
2021/05/29 09:35:57;;;;;;;5.55;3.22;;;20.80;49.50;;;;;;5098819;28;20053;-88
2021/05/29 09:38:24;;;;;;;4.10;2.40;;;20.70;50.30;;;;;;5094888;28;20023;-82
2021/05/29 09:40:53;;;;;;;4.22;2.33;;;20.80;51.10;;;;;;5070737;28;20020;-80
2021/05/29 09:43:18;;;;;;;3.10;2.40;;;20.90;50.30;;;;;;5096787;28;20460;-86
2021/05/29 09:45:44;;;;;;;4.50;2.40;;;21.10;50.10;;;;;;5093199;28;20039;-87
2021/05/29 09:48:20;;;;;;;3.40;2.40;;;21.10;49.50;;;;;;5110915;28;20047;-79
2021/05/29 09:51:07;;;;;;;4.72;2.60;;;21.20;49.40;;;;;;5090756;28;20384;-78
2021/05/29 09:53:39;;;;;;;5.05;2.40;;;21.30;49.20;;;;;;5092248;28;20031;-79
2021/05/29 09:56:06;;;;;;;3.53;2.33;;;21.40;49.10;;;;;;5087289;28;20098;-78
2021/05/29 09:59:04;;;;;;;4.95;3.20;;;21.50;49.60;;;;;;5076210;28;20028;-83
2021/05/29 10:01:43;;;;;;;7.40;3.95;;;21.60;49.30;;;;;;5063239;28;20028;-80
2021/05/29 10:04:28;;;;;;;5.53;3.42;;;21.70;49.60;;;;;;5102392;28;20023;-78
2021/05/29 10:07:00;;;;;;;5.35;2.65;;;21.80;48.70;;;;;;5108547;28;20027;-77
2021/05/29 10:09:26;;;;;;;4.00;2.60;;;21.80;48.60;;;;;;5092460;28;20025;-76
2021/05/29 10:11:53;;;;;;;4.20;2.42;;;21.80;48.30;;;;;;5093635;28;20564;-83
2021/05/29 10:14:19;;;;;;;2.38;2.17;;;21.90;48.70;;;;;;5095825;28;20057;-81
2021/05/29 10:16:46;;;;;;;3.22;2.22;;;22.00;47.90;;;;;;5114102;28;20024;-81
2021/05/29 10:19:12;;;;;;;6.85;2.63;;;21.90;47.20;;;;;;5114122;28;20012;-83
2021/05/29 10:21:38;;;;;;;6.28;2.67;;;21.90;47.50;;;;;;5094347;28;20058;-84
2021/05/29 10:24:05;;;;;;;4.28;2.50;;;22.00;48.50;;;;;;5075548;28;20104;-85
2021/05/29 10:26:32;;;;;;;4.25;3.45;;;21.90;48.60;;;;;;5101922;28;20035;-83
2021/05/29 10:28:59;;;;;;;4.25;3.40;;;21.90;47.60;;;;;;5095710;28;20357;-79
2021/05/29 10:31:31;;;;;;;5.95;3.38;;;21.80;47.80;;;;;;5090026;28;20065;-84
2021/05/29 10:33:56;;;;;;;6.30;2.90;;;21.90;47.70;;;;;;5095297;28;20050;-85
2021/05/29 10:36:36;;;;;;;3.85;2.75;;;22.10;47.70;;;;;;5095111;28;20023;-84
2021/05/29 10:39:05;;;;;;;4.00;2.60;;;22.20;47.20;;;;;;5101776;28;20054;-81
2021/05/29 10:41:52;;;;;;;3.90;2.80;;;22.10;46.60;;;;;;5113631;28;20008;-84
2021/05/29 10:44:30;;;;;;;3.50;2.78;;;22.10;47.90;;;;;;5112186;28;20027;-82
2021/05/29 10:47:14;;;;;;;5.93;3.17;;;22.30;46.90;;;;;;5097225;28;20043;-82
2021/05/29 10:49:56;;;;;;;4.22;2.85;;;22.50;47.70;;;;;;5099661;28;20031;-82
2021/05/29 10:52:31;;;;;;;4.70;3.22;;;22.50;48.10;;;;;;5090620;28;20031;-82
2021/05/29 10:55:11;;;;;;;6.30;3.63;;;22.40;47.90;;;;;;5093164;28;20028;-80
2021/05/29 10:57:54;;;;;;;6.72;2.80;;;22.20;48.20;;;;;;5095241;28;20051;-81
2021/05/29 11:00:35;;;;;;;5.47;2.97;;;21.90;49.40;;;;;;5105337;28;20357;-81
2021/05/29 11:03:16;;;;;;;4.57;3.13;;;21.80;49.60;;;;;;5099317;28;20019;-81
2021/05/29 11:05:46;;;;;;;4.32;3.17;;;21.90;49.10;;;;;;5106311;28;20030;-82
2021/05/29 11:08:51;;;;;;;4.40;2.42;;;22.00;47.40;;;;;;5112856;28;20414;-81
2021/05/29 11:14:06;;;;;;;9.50;3.15;;;22.40;46.80;;;;;;5111165;28;20491;-82
2021/05/29 11:16:54;;;;;;;3.75;3.25;;;22.40;47.40;;;;;;5094958;28;20031;-82
2021/05/29 11:19:28;;;;;;;6.18;3.50;;;22.50;45.90;;;;;;5114103;27;20028;-80
2021/05/29 11:22:04;;;;;;;5.63;3.65;;;22.50;46.40;;;;;;5095053;28;20036;-81
2021/05/29 11:24:32;;;;;;;5.07;3.42;;;22.50;46.80;;;;;;5092952;28;20035;-81
2021/05/29 11:26:58;;;;;;;4.47;3.20;;;22.70;47.40;;;;;;5075010;28;20028;-79
2021/05/29 11:29:24;;;;;;;3.03;2.72;;;22.60;46.50;;;;;;5082951;28;20426;-80
2021/05/29 11:31:50;;;;;;;4.07;3.17;;;22.40;47.30;;;;;;5092913;28;20017;-80
2021/05/29 11:34:16;;;;;;;3.72;2.95;;;22.10;47.10;;;;;;5084079;28;20157;-83
2021/05/29 11:36:42;;;;;;;4.47;3.05;;;22.00;47.00;;;;;;5113196;28;20535;-83
2021/05/29 11:39:13;;;;;;;3.58;2.65;;;22.20;46.40;;;;;;5094964;28;20032;-82
2021/05/29 11:41:39;;;;;;;6.05;3.00;;;22.50;45.40;;;;;;5113085;28;20033;-82
2021/05/29 11:44:19;;;;;;;3.92;3.00;;;22.60;46.00;;;;;;5094857;28;20497;-81
2021/05/29 11:46:44;;;;;;;5.10;3.20;;;22.80;45.90;;;;;;5109200;28;20058;-84
2021/05/29 11:49:10;;;;;;;5.30;2.80;;;22.90;46.30;;;;;;5081888;28;20114;-85
2021/05/29 11:51:38;;;;;;;5.80;3.40;;;22.90;45.00;;;;;;5098402;28;20023;-85
2021/05/29 11:54:15;;;;;;;5.85;2.60;;;22.80;44.50;;;;;;5110234;28;20375;-82
2021/05/29 11:56:44;;;;;;;7.15;3.10;;;22.80;45.20;;;;;;5106261;28;20042;-81
2021/05/29 11:59:13;;;;;;;4.53;3.05;;;22.80;45.50;;;;;;5113654;28;20376;-81
2021/05/29 12:01:41;;;;;;;4.13;3.05;;;22.90;44.70;;;;;;5112527;28;20027;-81
2021/05/29 12:04:08;;;;;;;4.18;3.00;;;23.00;45.90;;;;;;5113759;28;20028;-81
2021/05/29 12:06:41;;;;;;;6.43;3.17;;;23.10;46.20;;;;;;5111761;28;20080;-80
2021/05/29 12:09:19;;;;;;;4.47;3.28;;;23.20;45.60;;;;;;5098062;28;20020;-81
2021/05/29 12:11:59;;;;;;;4.40;3.20;;;23.30;46.30;;;;;;5115741;28;20464;-81
2021/05/29 12:14:27;;;;;;;4.03;3.10;;;23.20;44.90;;;;;;5115819;28;20035;-81
2021/05/29 12:17:00;;;;;;;5.15;3.40;;;23.20;44.90;;;;;;5105712;28;20111;-81
2021/05/29 12:19:28;;;;;;;4.93;3.60;;;23.20;45.20;;;;;;5097865;28;20028;-82
2021/05/29 12:21:56;;;;;;;8.10;3.35;;;23.30;44.40;;;;;;5102045;27;20030;-82
2021/05/29 12:24:24;;;;;;;5.85;3.45;;;23.40;44.90;;;;;;5110462;28;20028;-80
2021/05/29 12:26:51;;;;;;;5.43;3.40;;;23.40;45.10;;;;;;5096566;28;20036;-80
2021/05/29 12:29:22;;;;;;;5.68;3.25;;;23.10;45.10;;;;;;5092679;28;20296;-80
2021/05/29 12:31:49;;;;;;;4.75;3.60;;;23.00;45.90;;;;;;5106771;28;20020;-80
2021/05/29 12:34:15;;;;;;;5.43;3.83;;;23.00;45.70;;;;;;5091331;28;20036;-79
2021/05/29 12:37:08;;;;;;;4.70;3.40;;;22.80;44.60;;;;;;5080729;28;20145;-80
2021/05/29 12:39:54;;;;;;;7.13;3.65;;;22.60;45.30;;;;;;5109388;28;20023;-86
2021/05/29 12:42:29;;;;;;;4.95;3.40;;;22.80;46.00;;;;;;5087415;28;20024;-80
2021/05/29 12:44:57;;;;;;;7.53;4.78;;;23.00;45.80;;;;;;5084291;28;20495;-79
2021/05/29 12:47:34;;;;;;;6.10;4.18;;;22.80;45.40;;;;;;5082418;28;20500;-80
2021/05/29 12:50:12;;;;;;;6.18;4.80;;;22.30;46.70;;;;;;5080499;28;20043;-80
2021/05/29 12:52:38;;;;;;;7.43;4.90;;;22.20;47.30;;;;;;5088751;28;20476;-79
2021/05/29 12:55:04;;;;;;;6.50;4.55;;;22.20;47.00;;;;;;5088050;28;20105;-80
2021/05/29 12:57:38;;;;;;;5.03;3.92;;;22.20;47.20;;;;;;5082657;28;20832;-80
2021/05/29 13:11:46;;;;;;;9.93;4.47;;;22.50;47.00;;;;;;5085497;28;20028;-76
2021/05/29 13:14:14;;;;;;;9.05;3.50;;;22.70;46.50;;;;;;5086753;28;20036;-75
2021/05/29 13:16:49;;;;;;;7.32;4.13;;;22.70;46.60;;;;;;5084666;28;20016;-76